sensor_id;sensor_type;location;lat;lon;timestamp;pressure;altitude;pressure_sealevel;temperature;humidity
36788;BME280;22738;45.560;9.434;2023-04-03T00:02:38;99543.56;;;10.68;100.00
36788;BME280;22738;45.560;9.434;2023-04-03T00:09:21;99533.66;;;10.49;100.00
36788;BME280;22738;45.560;9.434;2023-04-03T00:16:02;99525.53;;;10.66;100.00
36788;BME280;22738;45.560;9.434;2023-04-03T00:22:44;99530.94;;;10.51;100.00
36788;BME280;22738;45.560;9.434;2023-04-03T00:29:25;99533.84;;;10.34;100.00
36788;BME280;22738;45.560;9.434;2023-04-03T00:36:08;99549.38;;;10.34;100.00
36788;BME280;22738;45.560;9.434;2023-04-03T00:42:52;99537.47;;;10.44;100.00
36788;BME280;22738;45.560;9.434;2023-04-03T00:49:36;99529.69;;;10.44;100.00
36788;BME280;22738;45.560;9.434;2023-04-03T00:56:19;99523.28;;;10.37;100.00
36788;BME280;22738;45.560;9.434;2023-04-03T01:03:02;99520.81;;;10.35;100.00
36788;BME280;22738;45.560;9.434;2023-04-03T01:09:46;99513.13;;;10.34;100.00
36788;BME280;22738;45.560;9.434;2023-04-03T01:16:30;99509.81;;;10.32;100.00
36788;BME280;22738;45.560;9.434;2023-04-03T01:23:49;99498.00;;;10.28;100.00
36788;BME280;22738;45.560;9.434;2023-04-03T01:30:35;99497.56;;;10.34;100.00
36788;BME280;22738;45.560;9.434;2023-04-03T01:37:17;99495.94;;;10.33;100.00
36788;BME280;22738;45.560;9.434;2023-04-03T01:43:58;99489.50;;;10.26;100.00
36788;BME280;22738;45.560;9.434;2023-04-03T01:50:39;99473.56;;;10.19;100.00
36788;BME280;22738;45.560;9.434;2023-04-03T01:57:21;99483.16;;;10.04;100.00
36788;BME280;22738;45.560;9.434;2023-04-03T02:04:02;99468.25;;;10.08;100.00
36788;BME280;22738;45.560;9.434;2023-04-03T02:10:44;99474.34;;;9.94;100.00
36788;BME280;22738;45.560;9.434;2023-04-03T02:17:26;99471.66;;;9.96;100.00
36788;BME280;22738;45.560;9.434;2023-04-03T02:24:10;99462.44;;;10.04;100.00
36788;BME280;22738;45.560;9.434;2023-04-03T02:30:51;99464.31;;;9.90;100.00
36788;BME280;22738;45.560;9.434;2023-04-03T02:37:33;99456.28;;;9.55;100.00
36788;BME280;22738;45.560;9.434;2023-04-03T02:44:14;99459.41;;;9.60;100.00
36788;BME280;22738;45.560;9.434;2023-04-03T02:50:55;99460.38;;;9.45;100.00
36788;BME280;22738;45.560;9.434;2023-04-03T02:57:36;99455.09;;;9.34;100.00
36788;BME280;22738;45.560;9.434;2023-04-03T03:04:18;99452.31;;;9.37;100.00
36788;BME280;22738;45.560;9.434;2023-04-03T03:10:59;99457.34;;;9.26;100.00
36788;BME280;22738;45.560;9.434;2023-04-03T03:17:41;99455.41;;;9.03;100.00
36788;BME280;22738;45.560;9.434;2023-04-03T03:24:22;99456.53;;;8.99;100.00
36788;BME280;22738;45.560;9.434;2023-04-03T03:31:03;99440.50;;;8.80;100.00
36788;BME280;22738;45.560;9.434;2023-04-03T03:37:45;99437.47;;;8.73;100.00
36788;BME280;22738;45.560;9.434;2023-04-03T03:44:26;99441.81;;;8.73;100.00
36788;BME280;22738;45.560;9.434;2023-04-03T03:51:10;99456.25;;;8.48;100.00
36788;BME280;22738;45.560;9.434;2023-04-03T03:57:53;99459.94;;;8.44;100.00
36788;BME280;22738;45.560;9.434;2023-04-03T04:04:35;99465.63;;;8.63;100.00
36788;BME280;22738;45.560;9.434;2023-04-03T04:11:16;99459.16;;;8.71;100.00
36788;BME280;22738;45.560;9.434;2023-04-03T04:17:59;99454.94;;;8.70;100.00
36788;BME280;22738;45.560;9.434;2023-04-03T04:24:40;99447.94;;;8.43;100.00
36788;BME280;22738;45.560;9.434;2023-04-03T04:31:23;99440.03;;;8.32;100.00
36788;BME280;22738;45.560;9.434;2023-04-03T04:38:04;99458.25;;;7.87;100.00
36788;BME280;22738;45.560;9.434;2023-04-03T04:44:45;99451.59;;;7.83;100.00
36788;BME280;22738;45.560;9.434;2023-04-03T04:51:29;99456.56;;;7.86;100.00
36788;BME280;22738;45.560;9.434;2023-04-03T04:58:10;99462.13;;;8.08;100.00
36788;BME280;22738;45.560;9.434;2023-04-03T05:04:51;99459.28;;;8.13;100.00
36788;BME280;22738;45.560;9.434;2023-04-03T05:11:37;99476.56;;;8.26;100.00
36788;BME280;22738;45.560;9.434;2023-04-03T05:18:20;99490.88;;;8.02;100.00
36788;BME280;22738;45.560;9.434;2023-04-03T05:25:02;99484.47;;;7.79;100.00
36788;BME280;22738;45.560;9.434;2023-04-03T05:31:44;99501.19;;;7.88;100.00
36788;BME280;22738;45.560;9.434;2023-04-03T05:38:27;99499.19;;;8.21;100.00
36788;BME280;22738;45.560;9.434;2023-04-03T05:45:10;99500.34;;;8.59;100.00
36788;BME280;22738;45.560;9.434;2023-04-03T05:51:51;99508.00;;;9.02;100.00
36788;BME280;22738;45.560;9.434;2023-04-03T05:58:42;99511.25;;;9.32;100.00
36788;BME280;22738;45.560;9.434;2023-04-03T06:05:23;99525.06;;;9.72;100.00
36788;BME280;22738;45.560;9.434;2023-04-03T06:12:05;99522.34;;;10.13;100.00
36788;BME280;22738;45.560;9.434;2023-04-03T06:18:46;99532.81;;;10.49;100.00
36788;BME280;22738;45.560;9.434;2023-04-03T06:25:28;99524.88;;;10.88;100.00
36788;BME280;22738;45.560;9.434;2023-04-03T06:32:09;99532.81;;;11.34;100.00
36788;BME280;22738;45.560;9.434;2023-04-03T06:38:50;99537.41;;;11.78;100.00
36788;BME280;22738;45.560;9.434;2023-04-03T06:45:31;99555.31;;;15.73;100.00
36788;BME280;22738;45.560;9.434;2023-04-03T06:52:12;99561.19;;;22.16;50.75
36788;BME280;22738;45.560;9.434;2023-04-03T06:58:54;99570.72;;;24.20;42.61
36788;BME280;22738;45.560;9.434;2023-04-03T07:05:38;99559.72;;;25.60;40.30
36788;BME280;22738;45.560;9.434;2023-04-03T07:12:19;99573.75;;;23.95;41.25
36788;BME280;22738;45.560;9.434;2023-04-03T07:19:00;99581.31;;;25.43;40.03
36788;BME280;22738;45.560;9.434;2023-04-03T07:25:46;99593.34;;;26.39;38.74
36788;BME280;22738;45.560;9.434;2023-04-03T07:32:28;99603.34;;;26.11;38.35
36788;BME280;22738;45.560;9.434;2023-04-03T07:39:09;99608.00;;;25.96;39.30
36788;BME280;22738;45.560;9.434;2023-04-03T07:45:51;99615.56;;;27.68;36.50
36788;BME280;22738;45.560;9.434;2023-04-03T07:52:33;99616.78;;;27.65;36.24
36788;BME280;22738;45.560;9.434;2023-04-03T07:59:13;99609.59;;;27.21;37.71
36788;BME280;22738;45.560;9.434;2023-04-03T08:06:01;99609.97;;;27.38;37.61
36788;BME280;22738;45.560;9.434;2023-04-03T08:12:46;99609.69;;;26.56;39.02
36788;BME280;22738;45.560;9.434;2023-04-03T08:19:27;99599.22;;;22.81;44.18
36788;BME280;22738;45.560;9.434;2023-04-03T08:26:16;99594.94;;;22.28;48.35
36788;BME280;22738;45.560;9.434;2023-04-03T08:33:00;99586.50;;;22.10;51.43
36788;BME280;22738;45.560;9.434;2023-04-03T08:39:42;99580.97;;;21.44;53.18
36788;BME280;22738;45.560;9.434;2023-04-03T08:46:42;99594.00;;;20.90;58.77
36788;BME280;22738;45.560;9.434;2023-04-03T08:53:28;99578.47;;;21.11;59.01
36788;BME280;22738;45.560;9.434;2023-04-03T09:00:24;99581.25;;;20.47;65.06
36788;BME280;22738;45.560;9.434;2023-04-03T09:07:14;99589.84;;;20.33;63.64
36788;BME280;22738;45.560;9.434;2023-04-03T09:14:30;99580.28;;;20.08;66.63
36788;BME280;22738;45.560;9.434;2023-04-03T09:21:20;99560.16;;;19.66;73.02
36788;BME280;22738;45.560;9.434;2023-04-03T09:28:05;99562.03;;;19.32;74.64
36788;BME280;22738;45.560;9.434;2023-04-03T09:34:51;99553.59;;;20.11;84.65
36788;BME280;22738;45.560;9.434;2023-04-03T09:41:33;99557.56;;;20.07;74.14
36788;BME280;22738;45.560;9.434;2023-04-03T09:48:18;99564.13;;;20.11;72.51
36788;BME280;22738;45.560;9.434;2023-04-03T09:55:10;99553.94;;;19.91;74.50
36788;BME280;22738;45.560;9.434;2023-04-03T10:09:10;99525.06;;;18.07;92.76
36788;BME280;22738;45.560;9.434;2023-04-03T10:16:03;99530.94;;;19.19;74.01
36788;BME280;22738;45.560;9.434;2023-04-03T10:23:21;99514.47;;;19.67;73.65
36788;BME280;22738;45.560;9.434;2023-04-03T10:37:27;99500.50;;;19.51;70.04
36788;BME280;22738;45.560;9.434;2023-04-03T10:51:52;99476.56;;;18.11;93.07
36788;BME280;22738;45.560;9.434;2023-04-03T10:58:58;99483.91;;;19.66;76.34
36788;BME280;22738;45.560;9.434;2023-04-03T11:05:51;99473.38;;;19.50;72.88
36788;BME280;22738;45.560;9.434;2023-04-03T11:12:51;99457.25;;;19.93;67.37
36788;BME280;22738;45.560;9.434;2023-04-03T11:19:38;99440.75;;;20.32;67.31
36788;BME280;22738;45.560;9.434;2023-04-03T11:26:22;99440.81;;;19.67;70.12
36788;BME280;22738;45.560;9.434;2023-04-03T11:33:26;99434.59;;;18.44;82.55
36788;BME280;22738;45.560;9.434;2023-04-03T11:46:59;99414.88;;;19.64;65.60
36788;BME280;22738;45.560;9.434;2023-04-03T11:53:42;99411.03;;;18.94;70.36
36788;BME280;22738;45.560;9.434;2023-04-03T12:07:35;99393.16;;;19.22;66.00
36788;BME280;22738;45.560;9.434;2023-04-03T12:14:17;99383.66;;;19.45;64.26
36788;BME280;22738;45.560;9.434;2023-04-03T12:20:58;99370.69;;;19.36;62.84
36788;BME280;22738;45.560;9.434;2023-04-03T12:27:46;99348.94;;;19.01;64.50
36788;BME280;22738;45.560;9.434;2023-04-03T12:42:11;99355.72;;;19.28;61.19
36788;BME280;22738;45.560;9.434;2023-04-03T12:48:58;99340.13;;;19.18;59.09
36788;BME280;22738;45.560;9.434;2023-04-03T12:55:39;99335.69;;;19.19;58.20
36788;BME280;22738;45.560;9.434;2023-04-03T13:02:30;99330.94;;;19.39;59.04
36788;BME280;22738;45.560;9.434;2023-04-03T13:16:10;99324.97;;;19.29;59.35
36788;BME280;22738;45.560;9.434;2023-04-03T13:23:08;99312.00;;;18.95;58.83
36788;BME280;22738;45.560;9.434;2023-04-03T13:29:55;99310.38;;;19.26;58.83
36788;BME280;22738;45.560;9.434;2023-04-03T13:36:46;99292.66;;;19.44;59.11
36788;BME280;22738;45.560;9.434;2023-04-03T13:43:37;99290.16;;;19.10;67.36
36788;BME280;22738;45.560;9.434;2023-04-03T13:50:21;99289.88;;;19.21;63.66
36788;BME280;22738;45.560;9.434;2023-04-03T13:57:12;99296.41;;;19.17;64.27
36788;BME280;22738;45.560;9.434;2023-04-03T14:03:55;99274.44;;;18.78;67.59
36788;BME280;22738;45.560;9.434;2023-04-03T14:10:37;99280.16;;;18.82;72.79
36788;BME280;22738;45.560;9.434;2023-04-03T14:17:24;99275.91;;;18.73;68.64
36788;BME280;22738;45.560;9.434;2023-04-03T14:24:07;99271.88;;;17.78;73.12
36788;BME280;22738;45.560;9.434;2023-04-03T14:30:49;99257.72;;;18.13;69.42
36788;BME280;22738;45.560;9.434;2023-04-03T14:37:31;99254.28;;;18.21;65.36
36788;BME280;22738;45.560;9.434;2023-04-03T14:44:14;99255.88;;;18.64;65.94
36788;BME280;22738;45.560;9.434;2023-04-03T14:50:55;99272.84;;;18.19;65.32
36788;BME280;22738;45.560;9.434;2023-04-03T14:57:38;99261.16;;;18.14;67.36
36788;BME280;22738;45.560;9.434;2023-04-03T15:04:20;99266.94;;;18.33;65.77
36788;BME280;22738;45.560;9.434;2023-04-03T15:11:01;99261.72;;;18.41;63.61
36788;BME280;22738;45.560;9.434;2023-04-03T15:17:43;99266.41;;;18.22;63.47
36788;BME280;22738;45.560;9.434;2023-04-03T15:24:25;99253.81;;;17.75;65.61
36788;BME280;22738;45.560;9.434;2023-04-03T15:31:06;99251.56;;;17.80;63.17
36788;BME280;22738;45.560;9.434;2023-04-03T15:37:48;99249.41;;;17.50;62.99
36788;BME280;22738;45.560;9.434;2023-04-03T15:44:29;99249.41;;;17.76;64.11
36788;BME280;22738;45.560;9.434;2023-04-03T15:51:10;99256.91;;;17.20;68.55
36788;BME280;22738;45.560;9.434;2023-04-03T15:57:53;99271.41;;;16.88;69.58
36788;BME280;22738;45.560;9.434;2023-04-03T16:04:34;99277.91;;;16.84;73.61
36788;BME280;22738;45.560;9.434;2023-04-03T16:11:15;99284.19;;;16.91;71.12
36788;BME280;22738;45.560;9.434;2023-04-03T16:17:57;99291.66;;;16.86;73.79
36788;BME280;22738;45.560;9.434;2023-04-03T16:24:39;99279.66;;;16.58;71.92
36788;BME280;22738;45.560;9.434;2023-04-03T16:31:20;99291.78;;;16.32;73.46
36788;BME280;22738;45.560;9.434;2023-04-03T16:38:04;99297.16;;;16.58;73.68
36788;BME280;22738;45.560;9.434;2023-04-03T16:44:45;99293.72;;;16.30;74.18
36788;BME280;22738;45.560;9.434;2023-04-03T16:51:26;99295.94;;;16.25;73.66
36788;BME280;22738;45.560;9.434;2023-04-03T16:58:07;99299.34;;;16.08;75.07
36788;BME280;22738;45.560;9.434;2023-04-03T17:04:51;99308.53;;;15.85;75.66
36788;BME280;22738;45.560;9.434;2023-04-03T17:11:32;99326.19;;;15.73;77.02
36788;BME280;22738;45.560;9.434;2023-04-03T17:18:14;99330.25;;;15.48;79.54
36788;BME280;22738;45.560;9.434;2023-04-03T17:24:55;99345.47;;;15.24;83.01
36788;BME280;22738;45.560;9.434;2023-04-03T17:31:37;99333.84;;;14.90;88.77
36788;BME280;22738;45.560;9.434;2023-04-03T17:38:18;99332.88;;;14.72;91.49
36788;BME280;22738;45.560;9.434;2023-04-03T17:44:59;99341.91;;;14.68;93.57
36788;BME280;22738;45.560;9.434;2023-04-03T17:51:41;99361.34;;;14.35;95.28
36788;BME280;22738;45.560;9.434;2023-04-03T17:58:22;99362.22;;;14.24;99.18
36788;BME280;22738;45.560;9.434;2023-04-03T18:05:03;99371.22;;;14.01;100.00
36788;BME280;22738;45.560;9.434;2023-04-03T18:11:49;99378.47;;;13.98;100.00
36788;BME280;22738;45.560;9.434;2023-04-03T18:18:30;99396.84;;;13.96;100.00
36788;BME280;22738;45.560;9.434;2023-04-03T18:25:11;99410.25;;;13.92;100.00
36788;BME280;22738;45.560;9.434;2023-04-03T18:31:54;99417.84;;;13.74;100.00
36788;BME280;22738;45.560;9.434;2023-04-03T18:38:37;99425.75;;;13.73;100.00
36788;BME280;22738;45.560;9.434;2023-04-03T18:45:22;99433.56;;;13.52;100.00
36788;BME280;22738;45.560;9.434;2023-04-03T18:52:04;99449.94;;;13.43;100.00
36788;BME280;22738;45.560;9.434;2023-04-03T18:58:47;99458.44;;;13.45;98.47
36788;BME280;22738;45.560;9.434;2023-04-03T19:05:29;99477.28;;;13.06;100.00
36788;BME280;22738;45.560;9.434;2023-04-03T19:12:22;99488.13;;;13.22;96.65
36788;BME280;22738;45.560;9.434;2023-04-03T19:19:08;99496.88;;;13.21;96.47
36788;BME280;22738;45.560;9.434;2023-04-03T19:26:04;99507.31;;;12.99;97.77
36788;BME280;22738;45.560;9.434;2023-04-03T19:32:46;99526.81;;;13.15;92.59
36788;BME280;22738;45.560;9.434;2023-04-03T19:39:30;99530.25;;;12.94;92.45
36788;BME280;22738;45.560;9.434;2023-04-03T19:46:15;99543.63;;;12.89;90.52
36788;BME280;22738;45.560;9.434;2023-04-03T19:52:59;99556.03;;;12.63;91.49
36788;BME280;22738;45.560;9.434;2023-04-03T19:59:44;99550.38;;;12.58;91.18
36788;BME280;22738;45.560;9.434;2023-04-03T20:06:26;99570.47;;;12.67;89.96
36788;BME280;22738;45.560;9.434;2023-04-03T20:13:09;99570.97;;;12.27;93.32
36788;BME280;22738;45.560;9.434;2023-04-03T20:19:50;99574.75;;;12.23;92.79
36788;BME280;22738;45.560;9.434;2023-04-03T20:26:33;99586.88;;;12.11;93.39
36788;BME280;22738;45.560;9.434;2023-04-03T20:33:17;99581.00;;;12.20;89.59
36788;BME280;22738;45.560;9.434;2023-04-03T20:39:58;99587.13;;;12.08;86.10
36788;BME280;22738;45.560;9.434;2023-04-03T20:46:40;99589.72;;;11.84;88.26
36788;BME280;22738;45.560;9.434;2023-04-03T20:53:23;99594.09;;;11.84;91.31
36788;BME280;22738;45.560;9.434;2023-04-03T21:00:05;99597.34;;;11.75;80.84
36788;BME280;22738;45.560;9.434;2023-04-03T21:21:28;99621.91;;;11.94;64.43
36788;BME280;22738;45.560;9.434;2023-04-03T21:28:10;99630.94;;;11.89;63.37
36788;BME280;22738;45.560;9.434;2023-04-03T21:34:52;99630.56;;;11.82;63.60
36788;BME280;22738;45.560;9.434;2023-04-03T21:41:33;99640.25;;;11.80;63.67
36788;BME280;22738;45.560;9.434;2023-04-03T21:48:15;99635.25;;;11.77;65.78
36788;BME280;22738;45.560;9.434;2023-04-03T21:54:58;99648.06;;;11.68;66.77
36788;BME280;22738;45.560;9.434;2023-04-03T22:01:41;99648.41;;;11.51;66.52
36788;BME280;22738;45.560;9.434;2023-04-03T22:08:23;99663.84;;;11.52;69.09
36788;BME280;22738;45.560;9.434;2023-04-03T22:15:06;99669.59;;;11.44;71.48
36788;BME280;22738;45.560;9.434;2023-04-03T22:21:49;99676.06;;;11.26;77.63
36788;BME280;22738;45.560;9.434;2023-04-03T22:28:33;99675.44;;;11.35;84.21
36788;BME280;22738;45.560;9.434;2023-04-03T22:35:15;99680.19;;;11.41;94.88
36788;BME280;22738;45.560;9.434;2023-04-03T22:41:56;99677.50;;;11.30;100.00
36788;BME280;22738;45.560;9.434;2023-04-03T22:48:40;99688.94;;;11.15;100.00
36788;BME280;22738;45.560;9.434;2023-04-03T22:55:22;99695.78;;;10.91;100.00
36788;BME280;22738;45.560;9.434;2023-04-03T23:02:05;99688.94;;;10.77;100.00
36788;BME280;22738;45.560;9.434;2023-04-03T23:08:46;99702.00;;;10.76;100.00
36788;BME280;22738;45.560;9.434;2023-04-03T23:15:27;99700.13;;;10.78;100.00
36788;BME280;22738;45.560;9.434;2023-04-03T23:22:08;99699.94;;;10.94;99.12
36788;BME280;22738;45.560;9.434;2023-04-03T23:28:51;99697.03;;;10.98;80.94
36788;BME280;22738;45.560;9.434;2023-04-03T23:35:32;99697.97;;;10.97;82.26
36788;BME280;22738;45.560;9.434;2023-04-03T23:42:13;99707.41;;;10.98;88.80
36788;BME280;22738;45.560;9.434;2023-04-03T23:48:54;99715.19;;;10.86;94.02
36788;BME280;22738;45.560;9.434;2023-04-03T23:55:35;99706.56;;;10.72;96.48
